No: Datum Uhrzeit Land Meereshöhe Ort Wetter Info Temp/°C Luftfeuchte Luftdruck Wind Regen Schnee
9520 >18.02.2018 >09:46:06 310 m Capellen Frost - 2,3° 96% 1027.5 hPa 0,0 km/h 0,0 mm 0 cm
9519 >17.02.2018 >17:35:25 566 m Brienz bedeckt + 5,2° 95% 1016.2 hPa 7,6 km/h 4,5 mm 0 cm
9518 >17.02.2018 >14:07:32 257 m Aachen bedeckt + 4,1° 79% 1021.1 hPa 2,2 km/h 0,0 mm 0 cm
9517 >17.02.2018 >06:56:14 310 m Capellen bedeckt + 0,4° 92% 1019.5 hPa 2,0 km/h 0,0 mm 0 cm
9516 >16.02.2018 >14:54:57 566 m Brienz Regen + 6° 93% 1023.0 hPa 8,6 km/h 12,4 mm 0 cm
9515 >16.02.2018 >10:58:38 412 m Niederlenz Sonne-Regen + 4,5° 45% 1024.1 hPa 1,4 km/h 11,2 mm 0 cm
9514 >15.02.2018 >07:24:16 324 m Windhof Schneeregen + 0,4° 96% 1012.6 hPa 6,0 km/h 0,4 mm 3,0 cm
9513 >15.02.2018 >06:59:35 566 m Brienz bedeckt - 1,1° 76% 1016.6 hPa 5,8 km/h 0,0 mm 0 cm
9512 >14.02.2018 >07:04:00 310 m Capellen sternenklar - 8,9° 93% 1015.5 hPa 0,0 km/h 0,0 mm 0 cm
9511 >14.02.2018 >05:29:47 494 m Büren NW Frost - 6,1° 78% 1011.9 hPa 0,3 km/h 0,0 mm 2 cm
9510 >13.02.2018 >11:06:31 257 m Aachen bedeckt + 2,5° 70% 1011.8 hPa 25,7 km/h 0,0 mm 0 cm
9509 >13.02.2018 >06:47:14 310 m Capellen bewölkt - 4,6° 96% 1016.4 hPa 6,5 km/h 0,0 mm 0 cm
9508 >12.02.2018 >16:35:46 525 m Ottnang/Hausruck bedeckt + 0,9° 85% 1013.2 hPa 5,0 km/h 0,0 mm 4,0 cm
9507 >11.02.2018 >18:27:46 127 m Malsch Regen + 2,8° 94% 1008.7 hPa 19,0 km/h 0,2 mm 0 cm
9506 >11.02.2018 >08:03:42 310 m Capellen Schneeregen + 0,4° 96% 1007.5 hPa 9,6 km/h 0,0 mm 8,0 cm
9505 >11.02.2018 >07:11:10 525 m Ottnang/Hausruck Schnee - 1,3° 89% 1011.2 hPa 0,0 km/h 0,0 mm 6,0 cm
9504 >10.02.2018 >11:07:25 310 m Capellen Schnee + 0,6° 96% 1018.8 hPa 6,0 km/h 0,0 mm 8,0 cm
9503 >10.02.2018 >09:15:11 173 m Ayl bedeckt + 0,8° 96% 1015.6 hPa 17,0 km/h 0,0 mm 0 cm
9502 >09.02.2018 >10:32:08 452 m Doennange bedeckt - 4,3° 89% 1017.1 hPa 16,1 km/h 0,0 mm 10,0 cm
9501 >09.02.2018 >10:06:30 298 m Mamer bedeckt - 2,3° 91% 1016.9 hPa 1,8 km/h 0,0 mm 8,0 cm
9500 >09.02.2018 >09:18:06 525 m Ottnang/Hausruck Schnee - 0,7° 93% 1016.7 hPa 0,0 km/h 0,0 mm 5,0 cm
9499 >09.02.2018 >08:55:31 566 m Brienz bedeckt + 0,5° 76% 1014.9 hPa 10,1 km/h 0,0 mm 0 cm
9498 >09.02.2018 >05:08:09 357 m Fichtenberg bewölkt - 1,2° 92% 1018.4 hPa 0,0 km/h 0,0 mm 0 cm
9497 >09.02.2018 >03:10:56 310 m Capellen sternenklar - 10,9° 92% 1019.9 hPa 0,0 km/h 0,0 mm 8,0 cm
9496 >08.02.2018 >11:12:43 127 m Malsch bewölkt + 0,8° 69% 1018.8 hPa 8,0 km/h 0,0 mm 0 cm

Admin